Terminal Aerodrome Forecast
Issued by NWS Jackson, MS

Home | Current Version | Previous Version | Text Only | Print | Product List | Glossary On
Versions: 1 2 3 4 5 6 7 8 9 10 11 12 13 14 15 16 17 18
000
FTUS44 KJAN 171337 AAA
TAFMEI
TAF AMD
KMEI 171337Z 1714/1812 24009KT P6SM SCT015 SCT050
     FM172300 23010KT P6SM VCTS SCT050CB
     FM180200 21005KT P6SM SCT100=

USA.gov is the U.S. government's official web portal to all federal, state and local government web resources and services.